sensor_id;sensor_type;location;lat;lon;timestamp;pressure;altitude;pressure_sealevel;temperature;humidity
24788;BME280;12883;52.662;5.196;2023-02-11T00:00:20;103309.09;;;8.90;100.00
24788;BME280;12883;52.662;5.196;2023-02-11T00:02:46;103290.81;;;8.87;100.00
24788;BME280;12883;52.662;5.196;2023-02-11T00:05:11;103300.16;;;8.91;100.00
24788;BME280;12883;52.662;5.196;2023-02-11T00:07:36;103303.28;;;8.96;100.00
24788;BME280;12883;52.662;5.196;2023-02-11T00:10:03;103309.56;;;8.95;100.00
24788;BME280;12883;52.662;5.196;2023-02-11T00:12:28;103324.47;;;8.96;100.00
24788;BME280;12883;52.662;5.196;2023-02-11T00:14:54;103308.25;;;8.90;100.00
24788;BME280;12883;52.662;5.196;2023-02-11T00:17:20;103320.34;;;9.03;100.00
24788;BME280;12883;52.662;5.196;2023-02-11T00:19:49;103324.03;;;9.12;100.00
24788;BME280;12883;52.662;5.196;2023-02-11T00:22:15;103316.72;;;9.04;100.00
24788;BME280;12883;52.662;5.196;2023-02-11T00:24:40;103304.44;;;9.03;100.00
24788;BME280;12883;52.662;5.196;2023-02-11T00:27:05;103318.41;;;9.05;100.00
24788;BME280;12883;52.662;5.196;2023-02-11T00:29:31;103315.50;;;9.08;100.00
24788;BME280;12883;52.662;5.196;2023-02-11T00:31:56;103305.31;;;9.04;100.00
24788;BME280;12883;52.662;5.196;2023-02-11T00:34:21;103297.59;;;9.01;100.00
24788;BME280;12883;52.662;5.196;2023-02-11T00:36:47;103303.47;;;9.04;100.00
24788;BME280;12883;52.662;5.196;2023-02-11T00:39:13;103298.66;;;9.09;100.00
24788;BME280;12883;52.662;5.196;2023-02-11T00:41:39;103283.59;;;9.10;100.00
24788;BME280;12883;52.662;5.196;2023-02-11T00:44:04;103259.28;;;8.84;100.00
24788;BME280;12883;52.662;5.196;2023-02-11T00:46:30;103269.63;;;9.08;100.00
24788;BME280;12883;52.662;5.196;2023-02-11T00:48:55;103274.09;;;9.07;100.00
24788;BME280;12883;52.662;5.196;2023-02-11T00:51:25;103258.84;;;9.00;100.00
24788;BME280;12883;52.662;5.196;2023-02-11T00:53:52;103275.09;;;9.06;100.00
24788;BME280;12883;52.662;5.196;2023-02-11T00:56:17;103289.72;;;9.10;100.00
24788;BME280;12883;52.662;5.196;2023-02-11T00:58:43;103278.81;;;9.04;100.00
24788;BME280;12883;52.662;5.196;2023-02-11T01:01:08;103281.78;;;9.10;100.00
24788;BME280;12883;52.662;5.196;2023-02-11T01:03:34;103299.50;;;9.10;100.00
24788;BME280;12883;52.662;5.196;2023-02-11T01:05:59;103231.22;;;8.72;100.00
24788;BME280;12883;52.662;5.196;2023-02-11T01:08:25;103308.97;;;9.12;100.00
24788;BME280;12883;52.662;5.196;2023-02-11T01:11:13;103312.28;;;9.05;100.00
24788;BME280;12883;52.662;5.196;2023-02-11T01:13:39;103302.00;;;9.11;100.00
24788;BME280;12883;52.662;5.196;2023-02-11T01:16:06;103318.22;;;9.18;100.00
24788;BME280;12883;52.662;5.196;2023-02-11T01:18:32;103298.38;;;9.12;100.00
24788;BME280;12883;52.662;5.196;2023-02-11T01:20:58;103302.56;;;9.15;100.00
24788;BME280;12883;52.662;5.196;2023-02-11T01:23:23;103292.31;;;9.21;100.00
24788;BME280;12883;52.662;5.196;2023-02-11T01:25:49;103275.31;;;9.03;100.00
24788;BME280;12883;52.662;5.196;2023-02-11T01:28:17;103313.75;;;9.18;100.00
24788;BME280;12883;52.662;5.196;2023-02-11T01:30:43;103304.72;;;9.21;100.00
24788;BME280;12883;52.662;5.196;2023-02-11T01:33:08;103306.47;;;9.11;100.00
24788;BME280;12883;52.662;5.196;2023-02-11T01:35:33;103305.38;;;9.13;100.00
24788;BME280;12883;52.662;5.196;2023-02-11T01:37:59;103288.56;;;9.03;100.00
24788;BME280;12883;52.662;5.196;2023-02-11T01:40:24;103300.72;;;9.06;100.00
24788;BME280;12883;52.662;5.196;2023-02-11T01:42:49;103294.88;;;8.91;100.00
24788;BME280;12883;52.662;5.196;2023-02-11T01:48:10;103288.16;;;8.87;100.00
24788;BME280;12883;52.662;5.196;2023-02-11T01:50:38;103292.28;;;8.80;100.00
24788;BME280;12883;52.662;5.196;2023-02-11T01:53:04;103296.16;;;8.76;100.00
24788;BME280;12883;52.662;5.196;2023-02-11T01:55:50;103293.28;;;8.68;100.00
24788;BME280;12883;52.662;5.196;2023-02-11T01:58:37;103297.19;;;8.64;100.00
24788;BME280;12883;52.662;5.196;2023-02-11T02:01:03;103296.13;;;8.56;100.00
24788;BME280;12883;52.662;5.196;2023-02-11T02:03:32;103302.00;;;8.48;100.00
24788;BME280;12883;52.662;5.196;2023-02-11T02:06:05;103279.94;;;8.38;100.00
24788;BME280;12883;52.662;5.196;2023-02-11T02:08:39;103284.84;;;8.43;100.00
24788;BME280;12883;52.662;5.196;2023-02-11T02:11:08;103283.53;;;8.37;100.00
24788;BME280;12883;52.662;5.196;2023-02-11T02:13:34;103266.84;;;8.15;100.00
24788;BME280;12883;52.662;5.196;2023-02-11T02:16:06;103281.78;;;8.27;100.00
24788;BME280;12883;52.662;5.196;2023-02-11T02:18:58;103286.47;;;8.23;100.00
24788;BME280;12883;52.662;5.196;2023-02-11T02:34:35;103272.50;;;7.99;100.00
24788;BME280;12883;52.662;5.196;2023-02-11T02:37:26;103271.69;;;7.99;100.00
24788;BME280;12883;52.662;5.196;2023-02-11T02:39:56;103271.69;;;7.99;100.00
24788;BME280;12883;52.662;5.196;2023-02-11T02:42:23;103279.03;;;7.95;100.00
24788;BME280;12883;52.662;5.196;2023-02-11T02:44:50;103281.19;;;7.90;100.00
24788;BME280;12883;52.662;5.196;2023-02-11T02:47:17;103282.16;;;7.89;100.00
24788;BME280;12883;52.662;5.196;2023-02-11T02:49:43;103289.00;;;7.81;100.00
24788;BME280;12883;52.662;5.196;2023-02-11T02:57:31;103276.16;;;7.76;100.00
24788;BME280;12883;52.662;5.196;2023-02-11T03:06:10;103271.47;;;7.58;100.00
24788;BME280;12883;52.662;5.196;2023-02-11T03:11:38;103256.22;;;7.61;100.00
24788;BME280;12883;52.662;5.196;2023-02-11T03:14:07;103264.97;;;7.62;100.00
24788;BME280;12883;52.662;5.196;2023-02-11T03:16:35;103254.03;;;7.55;100.00
24788;BME280;12883;52.662;5.196;2023-02-11T03:19:28;103248.16;;;7.52;100.00
24788;BME280;12883;52.662;5.196;2023-02-11T03:21:55;103209.84;;;7.24;100.00
24788;BME280;12883;52.662;5.196;2023-02-11T03:24:30;103244.53;;;7.42;100.00
24788;BME280;12883;52.662;5.196;2023-02-11T03:27:01;103245.03;;;7.47;100.00
24788;BME280;12883;52.662;5.196;2023-02-11T03:29:42;103243.47;;;7.44;100.00
24788;BME280;12883;52.662;5.196;2023-02-11T03:32:14;103239.84;;;7.45;100.00
24788;BME280;12883;52.662;5.196;2023-02-11T03:34:54;103240.09;;;7.42;100.00
24788;BME280;12883;52.662;5.196;2023-02-11T03:37:24;103233.97;;;7.42;100.00
24788;BME280;12883;52.662;5.196;2023-02-11T03:39:56;103242.50;;;7.45;100.00
24788;BME280;12883;52.662;5.196;2023-02-11T03:42:29;103249.00;;;7.41;100.00
24788;BME280;12883;52.662;5.196;2023-02-11T03:45:05;103260.53;;;7.40;100.00
24788;BME280;12883;52.662;5.196;2023-02-11T03:47:34;103247.31;;;7.40;100.00
24788;BME280;12883;52.662;5.196;2023-02-11T03:50:03;103249.81;;;7.42;100.00
24788;BME280;12883;52.662;5.196;2023-02-11T03:52:30;103197.59;;;7.12;100.00
24788;BME280;12883;52.662;5.196;2023-02-11T03:54:59;103224.72;;;7.36;100.00
24788;BME280;12883;52.662;5.196;2023-02-11T03:57:25;103220.41;;;7.35;100.00
24788;BME280;12883;52.662;5.196;2023-02-11T03:59:56;103222.81;;;7.38;100.00
24788;BME280;12883;52.662;5.196;2023-02-11T04:02:30;103220.75;;;7.42;100.00
24788;BME280;12883;52.662;5.196;2023-02-11T04:04:57;103219.44;;;7.36;100.00
24788;BME280;12883;52.662;5.196;2023-02-11T04:07:23;103201.91;;;7.24;100.00
24788;BME280;12883;52.662;5.196;2023-02-11T04:09:48;103236.88;;;7.39;100.00
24788;BME280;12883;52.662;5.196;2023-02-11T04:12:14;103236.75;;;7.40;100.00
24788;BME280;12883;52.662;5.196;2023-02-11T04:14:39;103223.78;;;7.26;100.00
24788;BME280;12883;52.662;5.196;2023-02-11T04:17:05;103241.06;;;7.41;100.00
24788;BME280;12883;52.662;5.196;2023-02-11T04:19:30;103227.50;;;7.35;100.00
24788;BME280;12883;52.662;5.196;2023-02-11T04:21:56;103234.56;;;7.45;100.00
24788;BME280;12883;52.662;5.196;2023-02-11T04:24:21;103236.25;;;7.35;100.00
24788;BME280;12883;52.662;5.196;2023-02-11T04:26:46;103247.28;;;7.29;100.00
24788;BME280;12883;52.662;5.196;2023-02-11T04:29:12;103246.13;;;7.33;100.00
24788;BME280;12883;52.662;5.196;2023-02-11T04:31:37;103247.31;;;7.40;100.00
24788;BME280;12883;52.662;5.196;2023-02-11T04:34:03;103249.69;;;7.32;100.00
24788;BME280;12883;52.662;5.196;2023-02-11T04:36:28;103254.25;;;7.30;100.00
24788;BME280;12883;52.662;5.196;2023-02-11T04:38:53;103257.34;;;7.24;100.00
24788;BME280;12883;52.662;5.196;2023-02-11T04:41:19;103258.09;;;7.26;100.00
24788;BME280;12883;52.662;5.196;2023-02-11T04:43:44;103255.69;;;7.23;100.00
24788;BME280;12883;52.662;5.196;2023-02-11T04:46:09;103261.22;;;7.20;100.00
24788;BME280;12883;52.662;5.196;2023-02-11T04:48:35;103263.09;;;7.07;100.00
24788;BME280;12883;52.662;5.196;2023-02-11T04:51:01;103262.03;;;7.10;100.00
24788;BME280;12883;52.662;5.196;2023-02-11T04:53:26;103252.59;;;6.84;100.00
24788;BME280;12883;52.662;5.196;2023-02-11T04:55:52;103267.31;;;7.10;100.00
24788;BME280;12883;52.662;5.196;2023-02-11T04:58:18;103264.53;;;7.11;100.00
24788;BME280;12883;52.662;5.196;2023-02-11T05:00:44;103275.59;;;7.16;100.00
24788;BME280;12883;52.662;5.196;2023-02-11T05:03:10;103247.84;;;7.00;100.00
24788;BME280;12883;52.662;5.196;2023-02-11T05:05:42;103267.91;;;7.24;100.00
24788;BME280;12883;52.662;5.196;2023-02-11T05:08:08;103281.63;;;7.29;100.00
24788;BME280;12883;52.662;5.196;2023-02-11T05:10:34;103272.59;;;7.21;100.00
24788;BME280;12883;52.662;5.196;2023-02-11T05:13:00;103274.66;;;7.28;100.00
24788;BME280;12883;52.662;5.196;2023-02-11T05:15:25;103274.41;;;7.20;100.00
24788;BME280;12883;52.662;5.196;2023-02-11T05:17:51;103278.13;;;7.18;100.00
24788;BME280;12883;52.662;5.196;2023-02-11T05:20:17;103276.81;;;7.23;100.00
24788;BME280;12883;52.662;5.196;2023-02-11T05:22:42;103270.09;;;7.19;100.00
24788;BME280;12883;52.662;5.196;2023-02-11T05:25:07;103278.84;;;7.20;100.00
24788;BME280;12883;52.662;5.196;2023-02-11T05:27:33;103270.31;;;7.16;100.00
24788;BME280;12883;52.662;5.196;2023-02-11T05:29:58;103274.03;;;7.14;100.00
24788;BME280;12883;52.662;5.196;2023-02-11T05:32:23;103260.47;;;7.07;100.00
24788;BME280;12883;52.662;5.196;2023-02-11T05:34:49;103195.47;;;6.72;100.00
24788;BME280;12883;52.662;5.196;2023-02-11T05:37:14;103260.47;;;7.07;100.00
24788;BME280;12883;52.662;5.196;2023-02-11T05:39:39;103250.97;;;7.05;100.00
24788;BME280;12883;52.662;5.196;2023-02-11T05:42:05;103265.03;;;7.05;100.00
24788;BME280;12883;52.662;5.196;2023-02-11T05:44:30;103268.13;;;6.99;100.00
24788;BME280;12883;52.662;5.196;2023-02-11T05:46:56;103271.84;;;6.97;100.00
24788;BME280;12883;52.662;5.196;2023-02-11T05:49:21;103273.88;;;7.04;100.00
24788;BME280;12883;52.662;5.196;2023-02-11T05:51:47;103265.03;;;7.05;100.00
24788;BME280;12883;52.662;5.196;2023-02-11T05:54:12;103272.94;;;7.05;100.00
24788;BME280;12883;52.662;5.196;2023-02-11T05:56:38;103255.88;;;6.98;100.00
24788;BME280;12883;52.662;5.196;2023-02-11T05:59:03;103263.81;;;6.98;100.00
24788;BME280;12883;52.662;5.196;2023-02-11T06:01:28;103229.88;;;6.70;100.00
24788;BME280;12883;52.662;5.196;2023-02-11T06:03:54;103273.88;;;7.04;100.00
24788;BME280;12883;52.662;5.196;2023-02-11T06:06:19;103256.72;;;6.99;100.00
24788;BME280;12883;52.662;5.196;2023-02-11T06:08:45;103256.50;;;7.02;100.00
24788;BME280;12883;52.662;5.196;2023-02-11T06:11:12;103259.00;;;7.03;100.00
24788;BME280;12883;52.662;5.196;2023-02-11T06:13:38;103267.88;;;7.02;100.00
24788;BME280;12883;52.662;5.196;2023-02-11T06:16:03;103267.28;;;6.99;100.00
24788;BME280;12883;52.662;5.196;2023-02-11T06:18:29;103269.69;;;7.02;100.00
24788;BME280;12883;52.662;5.196;2023-02-11T06:20:54;103269.41;;;6.94;100.00
24788;BME280;12883;52.662;5.196;2023-02-11T06:23:20;103264.75;;;6.97;100.00
24788;BME280;12883;52.662;5.196;2023-02-11T06:25:46;103267.28;;;6.99;100.00
24788;BME280;12883;52.662;5.196;2023-02-11T06:28:11;103275.53;;;6.94;100.00
24788;BME280;12883;52.662;5.196;2023-02-11T06:30:37;103272.19;;;6.92;100.00
24788;BME280;12883;52.662;5.196;2023-02-11T06:33:03;103267.50;;;6.96;100.00
24788;BME280;12883;52.662;5.196;2023-02-11T06:35:28;103249.25;;;6.82;100.00
24788;BME280;12883;52.662;5.196;2023-02-11T06:37:53;103268.34;;;6.96;100.00
24788;BME280;12883;52.662;5.196;2023-02-11T06:40:19;103268.34;;;6.96;100.00
24788;BME280;12883;52.662;5.196;2023-02-11T06:42:45;103265.59;;;6.98;100.00
24788;BME280;12883;52.662;5.196;2023-02-11T06:45:10;103263.06;;;6.96;100.00
24788;BME280;12883;52.662;5.196;2023-02-11T06:47:37;103256.59;;;7.00;100.00
24788;BME280;12883;52.662;5.196;2023-02-11T06:50:03;103269.81;;;7.00;100.00
24788;BME280;12883;52.662;5.196;2023-02-11T06:52:29;103268.50;;;7.06;100.00
24788;BME280;12883;52.662;5.196;2023-02-11T06:54:55;103265.84;;;7.06;100.00
24788;BME280;12883;52.662;5.196;2023-02-11T06:57:20;103264.28;;;7.03;100.00
24788;BME280;12883;52.662;5.196;2023-02-11T06:59:46;103275.34;;;7.08;100.00
24788;BME280;12883;52.662;5.196;2023-02-11T07:02:11;103271.03;;;7.07;100.00
24788;BME280;12883;52.662;5.196;2023-02-11T07:04:36;103268.28;;;7.09;100.00
24788;BME280;12883;52.662;5.196;2023-02-11T07:07:02;103271.03;;;7.07;100.00
24788;BME280;12883;52.662;5.196;2023-02-11T07:09:27;103276.06;;;7.10;100.00
24788;BME280;12883;52.662;5.196;2023-02-11T07:11:53;103268.84;;;7.01;100.00
24788;BME280;12883;52.662;5.196;2023-02-11T07:14:18;103274.38;;;7.09;100.00
24788;BME280;12883;52.662;5.196;2023-02-11T07:16:43;103284.22;;;7.18;100.00
24788;BME280;12883;52.662;5.196;2023-02-11T07:19:09;103271.63;;;7.11;100.00
24788;BME280;12883;52.662;5.196;2023-02-11T07:21:34;103268.72;;;7.03;100.00
24788;BME280;12883;52.662;5.196;2023-02-11T07:24:00;103281.13;;;7.13;100.00
24788;BME280;12883;52.662;5.196;2023-02-11T07:26:25;103280.66;;;7.19;100.00
24788;BME280;12883;52.662;5.196;2023-02-11T07:28:52;103288.28;;;7.11;100.00
24788;BME280;12883;52.662;5.196;2023-02-11T07:31:20;103288.34;;;7.22;100.00
24788;BME280;12883;52.662;5.196;2023-02-11T07:33:46;103295.19;;;7.25;100.00
24788;BME280;12883;52.662;5.196;2023-02-11T07:36:13;103291.47;;;7.27;100.00
24788;BME280;12883;52.662;5.196;2023-02-11T07:38:39;103286.19;;;7.27;100.00
24788;BME280;12883;52.662;5.196;2023-02-11T07:41:16;103287.97;;;7.27;100.00
24788;BME280;12883;52.662;5.196;2023-02-11T07:43:42;103302.03;;;7.38;100.00
24788;BME280;12883;52.662;5.196;2023-02-11T07:46:12;103306.50;;;7.38;100.00
24788;BME280;12883;52.662;5.196;2023-02-11T07:48:37;103300.00;;;7.42;100.00
24788;BME280;12883;52.662;5.196;2023-02-11T07:53:38;103289.91;;;7.25;100.00
24788;BME280;12883;52.662;5.196;2023-02-11T07:56:05;103313.22;;;7.42;100.00
24788;BME280;12883;52.662;5.196;2023-02-11T07:58:31;103309.84;;;7.40;100.00
24788;BME280;12883;52.662;5.196;2023-02-11T08:01:05;103324.38;;;7.45;100.00
24788;BME280;12883;52.662;5.196;2023-02-11T08:03:32;103314.06;;;7.42;100.00
24788;BME280;12883;52.662;5.196;2023-02-11T08:06:03;103316.94;;;7.50;100.00
24788;BME280;12883;52.662;5.196;2023-02-11T08:08:28;103294.13;;;7.38;100.00
24788;BME280;12883;52.662;5.196;2023-02-11T08:10:54;103307.84;;;7.54;100.00
24788;BME280;12883;52.662;5.196;2023-02-11T08:13:19;103308.78;;;7.53;100.00
24788;BME280;12883;52.662;5.196;2023-02-11T08:15:44;103307.34;;;7.60;100.00
24788;BME280;12883;52.662;5.196;2023-02-11T08:18:10;103315.41;;;7.70;100.00
24788;BME280;12883;52.662;5.196;2023-02-11T08:20:35;103302.56;;;7.54;100.00
24788;BME280;12883;52.662;5.196;2023-02-11T08:23:00;103320.34;;;7.74;100.00
24788;BME280;12883;52.662;5.196;2023-02-11T08:25:26;103323.34;;;7.81;100.00
24788;BME280;12883;52.662;5.196;2023-02-11T08:27:52;103329.34;;;7.83;100.00
24788;BME280;12883;52.662;5.196;2023-02-11T08:30:17;103331.78;;;7.86;100.00
24788;BME280;12883;52.662;5.196;2023-02-11T08:32:42;103326.34;;;7.87;100.00
24788;BME280;12883;52.662;5.196;2023-02-11T08:35:08;103341.13;;;7.90;100.00
24788;BME280;12883;52.662;5.196;2023-02-11T08:37:36;103339.31;;;8.01;100.00
24788;BME280;12883;52.662;5.196;2023-02-11T08:40:02;103332.50;;;7.99;100.00
24788;BME280;12883;52.662;5.196;2023-02-11T08:42:27;103328.53;;;8.04;100.00
24788;BME280;12883;52.662;5.196;2023-02-11T08:44:53;103329.94;;;8.08;100.00
24788;BME280;12883;52.662;5.196;2023-02-11T08:47:18;103340.50;;;8.08;100.00
24788;BME280;12883;52.662;5.196;2023-02-11T08:49:43;103346.31;;;8.24;100.00
24788;BME280;12883;52.662;5.196;2023-02-11T08:52:09;103348.22;;;8.22;100.00
24788;BME280;12883;52.662;5.196;2023-02-11T08:54:34;103356.41;;;8.19;100.00
24788;BME280;12883;52.662;5.196;2023-02-11T08:56:59;103348.00;;;8.25;100.00
24788;BME280;12883;52.662;5.196;2023-02-11T08:59:26;103345.25;;;8.27;100.00
24788;BME280;12883;52.662;5.196;2023-02-11T09:01:51;103339.44;;;8.33;100.00
24788;BME280;12883;52.662;5.196;2023-02-11T09:04:17;103339.81;;;8.39;100.00
24788;BME280;12883;52.662;5.196;2023-02-11T09:06:42;103342.44;;;8.39;100.00
24788;BME280;12883;52.662;5.196;2023-02-11T09:09:10;103361.91;;;8.49;100.00
24788;BME280;12883;52.662;5.196;2023-02-11T09:11:37;103342.44;;;8.39;100.00
24788;BME280;12883;52.662;5.196;2023-02-11T09:14:05;103369.13;;;8.58;100.00
24788;BME280;12883;52.662;5.196;2023-02-11T09:16:32;103375.13;;;8.60;100.00
24788;BME280;12883;52.662;5.196;2023-02-11T09:18:59;103351.78;;;8.65;100.00
24788;BME280;12883;52.662;5.196;2023-02-11T09:21:25;103376.78;;;8.72;100.00
24788;BME280;12883;52.662;5.196;2023-02-11T09:23:51;103371.03;;;8.67;100.00
24788;BME280;12883;52.662;5.196;2023-02-11T09:26:23;103375.31;;;8.79;100.00
24788;BME280;12883;52.662;5.196;2023-02-11T09:28:49;103367.63;;;8.76;100.00
24788;BME280;12883;52.662;5.196;2023-02-11T09:31:18;103372.88;;;8.87;100.00
24788;BME280;12883;52.662;5.196;2023-02-11T09:33:45;103389.09;;;8.94;100.00
24788;BME280;12883;52.662;5.196;2023-02-11T09:36:19;103385.25;;;8.98;100.00
24788;BME280;12883;52.662;5.196;2023-02-11T09:38:45;103385.38;;;8.96;100.00
24788;BME280;12883;52.662;5.196;2023-02-11T09:43:59;103387.81;;;9.20;100.00
24788;BME280;12883;52.662;5.196;2023-02-11T09:46:30;103399.47;;;9.28;100.00
24788;BME280;12883;52.662;5.196;2023-02-11T09:48:58;103403.28;;;9.35;100.00
24788;BME280;12883;52.662;5.196;2023-02-11T09:51:47;103411.16;;;9.46;100.00
24788;BME280;12883;52.662;5.196;2023-02-11T09:54:45;103417.19;;;9.48;100.00
24788;BME280;12883;52.662;5.196;2023-02-11T09:57:13;103413.06;;;9.55;100.00
24788;BME280;12883;52.662;5.196;2023-02-11T09:59:39;103426.03;;;9.58;100.00
24788;BME280;12883;52.662;5.196;2023-02-11T10:02:19;103403.75;;;9.60;100.00
24788;BME280;12883;52.662;5.196;2023-02-11T10:07:40;103432.94;;;9.90;100.00
24788;BME280;12883;52.662;5.196;2023-02-11T10:21:13;103441.00;;;10.20;100.00
24788;BME280;12883;52.662;5.196;2023-02-11T10:23:44;103444.34;;;10.22;100.00
24788;BME280;12883;52.662;5.196;2023-02-11T10:26:15;103448.16;;;10.29;100.00
24788;BME280;12883;52.662;5.196;2023-02-11T10:28:43;103455.69;;;10.34;100.00
24788;BME280;12883;52.662;5.196;2023-02-11T10:31:15;103455.09;;;10.51;100.00
24788;BME280;12883;52.662;5.196;2023-02-11T10:34:01;103454.28;;;10.60;100.00
24788;BME280;12883;52.662;5.196;2023-02-11T10:36:32;103458.88;;;10.58;100.00
24788;BME280;12883;52.662;5.196;2023-02-11T10:38:59;103465.59;;;10.62;100.00
24788;BME280;12883;52.662;5.196;2023-02-11T10:41:31;103470.41;;;10.77;100.00
24788;BME280;12883;52.662;5.196;2023-02-11T10:43:59;103457.25;;;10.76;100.00
24788;BME280;12883;52.662;5.196;2023-02-11T10:46:30;103468.56;;;10.78;100.00
24788;BME280;12883;52.662;5.196;2023-02-11T10:48:58;103474.94;;;10.96;100.00
24788;BME280;12883;52.662;5.196;2023-02-11T10:56:32;103464.03;;;11.08;100.00
24788;BME280;12883;52.662;5.196;2023-02-11T10:59:45;103457.34;;;11.14;100.00
24788;BME280;12883;52.662;5.196;2023-02-11T11:01:56;103464.91;;;11.18;100.00
24788;BME280;12883;52.662;5.196;2023-02-11T11:07:17;103473.59;;;11.30;100.00
24788;BME280;12883;52.662;5.196;2023-02-11T11:09:46;103480.88;;;11.28;100.00
24788;BME280;12883;52.662;5.196;2023-02-11T11:15:12;103482.00;;;11.35;100.00
24788;BME280;12883;52.662;5.196;2023-02-11T11:17:37;103466.84;;;11.26;100.00
24788;BME280;12883;52.662;5.196;2023-02-11T11:20:25;103488.97;;;11.36;100.00
24788;BME280;12883;52.662;5.196;2023-02-11T11:23:18;103484.78;;;11.43;100.00
24788;BME280;12883;52.662;5.196;2023-02-11T11:26:00;103485.47;;;11.45;100.00
24788;BME280;12883;52.662;5.196;2023-02-11T11:28:28;103493.19;;;11.29;100.00
24788;BME280;12883;52.662;5.196;2023-02-11T11:30:55;103494.56;;;11.33;100.00
24788;BME280;12883;52.662;5.196;2023-02-11T11:33:27;103495.00;;;11.38;100.00
24788;BME280;12883;52.662;5.196;2023-02-11T11:36:20;103493.47;;;11.45;100.00
24788;BME280;12883;52.662;5.196;2023-02-11T11:38:57;103484.78;;;11.43;100.00
24788;BME280;12883;52.662;5.196;2023-02-11T11:41:27;103501.75;;;11.51;100.00
24788;BME280;12883;52.662;5.196;2023-02-11T11:46:38;103499.63;;;11.55;100.00
24788;BME280;12883;52.662;5.196;2023-02-11T11:51:33;103458.19;;;11.24;100.00
24788;BME280;12883;52.662;5.196;2023-02-11T11:54:03;103503.53;;;11.51;100.00
24788;BME280;12883;52.662;5.196;2023-02-11T11:56:33;103511.69;;;11.68;100.00
24788;BME280;12883;52.662;5.196;2023-02-11T11:59:00;103513.09;;;11.63;100.00
24788;BME280;12883;52.662;5.196;2023-02-11T12:01:51;103511.97;;;11.75;100.00
24788;BME280;12883;52.662;5.196;2023-02-11T12:07:42;103522.03;;;11.71;100.00
24788;BME280;12883;52.662;5.196;2023-02-11T12:10:55;103525.13;;;11.86;100.00
24788;BME280;12883;52.662;5.196;2023-02-11T12:13:36;103523.72;;;11.82;100.00
24788;BME280;12883;52.662;5.196;2023-02-11T12:19:14;103518.81;;;11.87;100.00
24788;BME280;12883;52.662;5.196;2023-02-11T12:30:04;103522.91;;;11.91;100.00
24788;BME280;12883;52.662;5.196;2023-02-11T12:32:54;103527.66;;;11.87;100.00
24788;BME280;12883;52.662;5.196;2023-02-11T12:38:44;103510.56;;;11.90;100.00
24788;BME280;12883;52.662;5.196;2023-02-11T12:45:12;103520.66;;;11.96;100.00
24788;BME280;12883;52.662;5.196;2023-02-11T12:47:48;103515.88;;;11.99;100.00
24788;BME280;12883;52.662;5.196;2023-02-11T12:50:21;103513.06;;;12.01;100.00
24788;BME280;12883;52.662;5.196;2023-02-11T12:53:15;103523.16;;;11.97;100.00
24788;BME280;12883;52.662;5.196;2023-02-11T12:55:50;103531.00;;;11.99;100.00
24788;BME280;12883;52.662;5.196;2023-02-11T12:58:21;103528.66;;;11.96;100.00
24788;BME280;12883;52.662;5.196;2023-02-11T13:01:04;103524.44;;;11.93;100.00
24788;BME280;12883;52.662;5.196;2023-02-11T13:03:39;103517.56;;;11.91;100.00
24788;BME280;12883;52.662;5.196;2023-02-11T13:06:15;103520.06;;;11.92;100.00
24788;BME280;12883;52.662;5.196;2023-02-11T13:08:48;103525.69;;;11.99;100.00
24788;BME280;12883;52.662;5.196;2023-02-11T13:11:17;103515.59;;;11.93;100.00
24788;BME280;12883;52.662;5.196;2023-02-11T13:21:28;103532.13;;;11.87;100.00
24788;BME280;12883;52.662;5.196;2023-02-11T13:24:04;103522.03;;;11.90;100.00
24788;BME280;12883;52.662;5.196;2023-02-11T13:32:09;103520.94;;;11.83;100.00
24788;BME280;12883;52.662;5.196;2023-02-11T13:42:21;103511.13;;;11.84;100.00
24788;BME280;12883;52.662;5.196;2023-02-11T13:44:46;103506.63;;;11.84;100.00
24788;BME280;12883;52.662;5.196;2023-02-11T13:47:25;103512.25;;;11.81;100.00
24788;BME280;12883;52.662;5.196;2023-02-11T13:49:53;103513.38;;;11.79;100.00
24788;BME280;12883;52.662;5.196;2023-02-11T13:52:30;103518.00;;;11.77;100.00
24788;BME280;12883;52.662;5.196;2023-02-11T13:57:39;103511.56;;;11.70;100.00
24788;BME280;12883;52.662;5.196;2023-02-11T14:09:31;103515.78;;;11.72;100.00
24788;BME280;12883;52.662;5.196;2023-02-11T14:12:15;103510.03;;;11.67;100.00
24788;BME280;12883;52.662;5.196;2023-02-11T14:15:00;103524.69;;;11.71;100.00
24788;BME280;12883;52.662;5.196;2023-02-11T14:17:27;103521.22;;;11.71;100.00
24788;BME280;12883;52.662;5.196;2023-02-11T14:19:54;103519.75;;;11.57;100.00
24788;BME280;12883;52.662;5.196;2023-02-11T14:22:30;103478.91;;;11.30;100.00
24788;BME280;12883;52.662;5.196;2023-02-11T14:25:15;103526.53;;;11.61;100.00
24788;BME280;12883;52.662;5.196;2023-02-11T14:27:49;103530.31;;;11.59;100.00
24788;BME280;12883;52.662;5.196;2023-02-11T14:30:28;103535.44;;;11.51;100.00
24788;BME280;12883;52.662;5.196;2023-02-11T14:33:21;103539.91;;;11.50;100.00
24788;BME280;12883;52.662;5.196;2023-02-11T14:41:28;103537.13;;;11.42;100.00
24788;BME280;12883;52.662;5.196;2023-02-11T14:43:57;103537.69;;;11.46;100.00
24788;BME280;12883;52.662;5.196;2023-02-11T14:46:24;103529.00;;;11.34;100.00
24788;BME280;12883;52.662;5.196;2023-02-11T14:48:53;103535.44;;;11.41;100.00
24788;BME280;12883;52.662;5.196;2023-02-11T14:51:26;103548.06;;;11.49;100.00
24788;BME280;12883;52.662;5.196;2023-02-11T14:53:57;103550.81;;;11.38;100.00
24788;BME280;12883;52.662;5.196;2023-02-11T14:56:29;103547.19;;;11.39;100.00
24788;BME280;12883;52.662;5.196;2023-02-11T14:58:59;103546.19;;;11.40;100.00
24788;BME280;12883;52.662;5.196;2023-02-11T15:01:34;103546.06;;;11.41;100.00
24788;BME280;12883;52.662;5.196;2023-02-11T15:04:02;103549.44;;;11.34;100.00